sensor_id;sensor_type;location;lat;lon;timestamp;temperature;humidity
20398;DHT22;10358;49.590;11.030;2023-12-07T00:01:14;2.10;99.90
20398;DHT22;10358;49.590;11.030;2023-12-07T00:03:39;2.00;99.90
20398;DHT22;10358;49.590;11.030;2023-12-07T00:06:05;2.00;99.90
20398;DHT22;10358;49.590;11.030;2023-12-07T00:08:30;2.00;99.90
20398;DHT22;10358;49.590;11.030;2023-12-07T00:10:56;2.00;99.90
20398;DHT22;10358;49.590;11.030;2023-12-07T00:13:21;2.00;99.90
20398;DHT22;10358;49.590;11.030;2023-12-07T00:15:47;2.00;99.90
20398;DHT22;10358;49.590;11.030;2023-12-07T00:18:13;2.00;99.90
20398;DHT22;10358;49.590;11.030;2023-12-07T00:20:38;1.90;99.90
20398;DHT22;10358;49.590;11.030;2023-12-07T00:23:04;1.90;99.90
20398;DHT22;10358;49.590;11.030;2023-12-07T00:25:31;1.80;99.90
20398;DHT22;10358;49.590;11.030;2023-12-07T00:27:56;1.80;99.90
20398;DHT22;10358;49.590;11.030;2023-12-07T00:30:22;1.80;99.90
20398;DHT22;10358;49.590;11.030;2023-12-07T00:32:47;1.90;99.90
20398;DHT22;10358;49.590;11.030;2023-12-07T00:35:13;1.90;99.90
20398;DHT22;10358;49.590;11.030;2023-12-07T00:37:40;1.90;99.90
20398;DHT22;10358;49.590;11.030;2023-12-07T00:40:05;1.90;99.90
20398;DHT22;10358;49.590;11.030;2023-12-07T00:42:33;1.90;99.90
20398;DHT22;10358;49.590;11.030;2023-12-07T00:45:00;1.90;99.90
20398;DHT22;10358;49.590;11.030;2023-12-07T00:47:25;1.90;99.90
20398;DHT22;10358;49.590;11.030;2023-12-07T00:49:51;1.90;99.90
20398;DHT22;10358;49.590;11.030;2023-12-07T00:52:16;2.00;99.90
20398;DHT22;10358;49.590;11.030;2023-12-07T00:54:42;2.00;99.90
20398;DHT22;10358;49.590;11.030;2023-12-07T00:57:08;2.00;99.90
20398;DHT22;10358;49.590;11.030;2023-12-07T00:59:33;2.00;99.90
20398;DHT22;10358;49.590;11.030;2023-12-07T01:02:00;1.90;99.90
20398;DHT22;10358;49.590;11.030;2023-12-07T01:04:27;1.90;99.90
20398;DHT22;10358;49.590;11.030;2023-12-07T01:06:53;2.00;99.90
20398;DHT22;10358;49.590;11.030;2023-12-07T01:09:18;1.90;99.90
20398;DHT22;10358;49.590;11.030;2023-12-07T01:11:44;2.00;99.90
20398;DHT22;10358;49.590;11.030;2023-12-07T01:14:10;2.00;99.90
20398;DHT22;10358;49.590;11.030;2023-12-07T01:16:36;2.00;99.90
20398;DHT22;10358;49.590;11.030;2023-12-07T01:19:02;2.00;99.90
20398;DHT22;10358;49.590;11.030;2023-12-07T01:21:28;2.00;99.90
20398;DHT22;10358;49.590;11.030;2023-12-07T01:23:53;2.00;99.90
20398;DHT22;10358;49.590;11.030;2023-12-07T01:26:19;2.00;99.90
20398;DHT22;10358;49.590;11.030;2023-12-07T01:28:44;2.00;99.90
20398;DHT22;10358;49.590;11.030;2023-12-07T01:31:10;2.00;99.90
20398;DHT22;10358;49.590;11.030;2023-12-07T01:33:35;1.90;99.90
20398;DHT22;10358;49.590;11.030;2023-12-07T01:36:01;1.90;99.90
20398;DHT22;10358;49.590;11.030;2023-12-07T01:38:27;1.90;99.90
20398;DHT22;10358;49.590;11.030;2023-12-07T01:40:52;1.90;99.90
20398;DHT22;10358;49.590;11.030;2023-12-07T01:43:19;2.00;99.90
20398;DHT22;10358;49.590;11.030;2023-12-07T01:45:46;2.00;99.90
20398;DHT22;10358;49.590;11.030;2023-12-07T01:48:12;2.10;99.90
20398;DHT22;10358;49.590;11.030;2023-12-07T01:50:38;2.10;99.90
20398;DHT22;10358;49.590;11.030;2023-12-07T01:53:04;2.10;99.90
20398;DHT22;10358;49.590;11.030;2023-12-07T01:55:31;2.10;99.90
20398;DHT22;10358;49.590;11.030;2023-12-07T01:57:57;2.10;99.90
20398;DHT22;10358;49.590;11.030;2023-12-07T02:00:24;2.10;99.90
20398;DHT22;10358;49.590;11.030;2023-12-07T02:02:51;2.10;99.90
20398;DHT22;10358;49.590;11.030;2023-12-07T02:05:17;2.00;99.90
20398;DHT22;10358;49.590;11.030;2023-12-07T02:07:43;2.10;99.90
20398;DHT22;10358;49.590;11.030;2023-12-07T02:10:11;2.10;99.90
20398;DHT22;10358;49.590;11.030;2023-12-07T02:12:36;2.00;99.90
20398;DHT22;10358;49.590;11.030;2023-12-07T02:15:03;2.00;99.90
20398;DHT22;10358;49.590;11.030;2023-12-07T02:17:34;2.00;99.90
20398;DHT22;10358;49.590;11.030;2023-12-07T02:20:28;2.10;99.90
20398;DHT22;10358;49.590;11.030;2023-12-07T02:22:56;2.00;99.90
20398;DHT22;10358;49.590;11.030;2023-12-07T02:25:31;2.00;99.90
20398;DHT22;10358;49.590;11.030;2023-12-07T02:27:57;2.00;99.90
20398;DHT22;10358;49.590;11.030;2023-12-07T02:30:23;2.00;99.90
20398;DHT22;10358;49.590;11.030;2023-12-07T02:32:48;2.00;99.90
20398;DHT22;10358;49.590;11.030;2023-12-07T02:35:14;2.00;99.90
20398;DHT22;10358;49.590;11.030;2023-12-07T02:37:46;2.00;99.90
20398;DHT22;10358;49.590;11.030;2023-12-07T02:40:18;2.00;99.90
20398;DHT22;10358;49.590;11.030;2023-12-07T02:42:44;2.00;99.90
20398;DHT22;10358;49.590;11.030;2023-12-07T02:45:11;2.00;99.90
20398;DHT22;10358;49.590;11.030;2023-12-07T02:47:38;2.00;99.90
20398;DHT22;10358;49.590;11.030;2023-12-07T02:50:05;2.00;99.90
20398;DHT22;10358;49.590;11.030;2023-12-07T02:52:31;2.00;99.90
20398;DHT22;10358;49.590;11.030;2023-12-07T02:54:57;1.90;99.90
20398;DHT22;10358;49.590;11.030;2023-12-07T02:57:22;2.00;99.90
20398;DHT22;10358;49.590;11.030;2023-12-07T02:59:48;1.90;99.90
20398;DHT22;10358;49.590;11.030;2023-12-07T03:02:14;1.90;99.90
20398;DHT22;10358;49.590;11.030;2023-12-07T03:04:39;1.90;99.90
20398;DHT22;10358;49.590;11.030;2023-12-07T03:07:05;1.90;99.90
20398;DHT22;10358;49.590;11.030;2023-12-07T03:09:30;1.90;99.90
20398;DHT22;10358;49.590;11.030;2023-12-07T03:11:56;1.90;99.90
20398;DHT22;10358;49.590;11.030;2023-12-07T03:14:21;1.80;99.90
20398;DHT22;10358;49.590;11.030;2023-12-07T03:16:47;1.80;99.90
20398;DHT22;10358;49.590;11.030;2023-12-07T03:19:12;1.80;99.90
20398;DHT22;10358;49.590;11.030;2023-12-07T03:21:42;1.80;99.90
20398;DHT22;10358;49.590;11.030;2023-12-07T03:24:10;1.80;99.90
20398;DHT22;10358;49.590;11.030;2023-12-07T03:26:37;1.70;99.90
20398;DHT22;10358;49.590;11.030;2023-12-07T03:29:03;1.70;99.90
20398;DHT22;10358;49.590;11.030;2023-12-07T03:31:29;1.70;99.90
20398;DHT22;10358;49.590;11.030;2023-12-07T03:33:55;1.70;99.90
20398;DHT22;10358;49.590;11.030;2023-12-07T03:36:21;1.70;99.90
20398;DHT22;10358;49.590;11.030;2023-12-07T03:38:47;1.70;99.90
20398;DHT22;10358;49.590;11.030;2023-12-07T03:41:13;1.70;99.90
20398;DHT22;10358;49.590;11.030;2023-12-07T03:43:38;1.70;99.90
20398;DHT22;10358;49.590;11.030;2023-12-07T03:46:04;1.70;99.90
20398;DHT22;10358;49.590;11.030;2023-12-07T03:48:31;1.70;99.90
20398;DHT22;10358;49.590;11.030;2023-12-07T03:50:56;1.70;99.90
20398;DHT22;10358;49.590;11.030;2023-12-07T03:53:22;1.60;99.90
20398;DHT22;10358;49.590;11.030;2023-12-07T03:55:48;1.60;99.90
20398;DHT22;10358;49.590;11.030;2023-12-07T03:58:13;1.60;99.90
20398;DHT22;10358;49.590;11.030;2023-12-07T04:00:39;1.60;99.90
20398;DHT22;10358;49.590;11.030;2023-12-07T04:03:04;1.60;99.90
20398;DHT22;10358;49.590;11.030;2023-12-07T04:05:30;1.50;99.90
20398;DHT22;10358;49.590;11.030;2023-12-07T04:07:56;1.50;99.90
20398;DHT22;10358;49.590;11.030;2023-12-07T04:10:22;1.40;99.90
20398;DHT22;10358;49.590;11.030;2023-12-07T04:12:47;1.40;99.90
20398;DHT22;10358;49.590;11.030;2023-12-07T04:15:13;1.40;99.90
20398;DHT22;10358;49.590;11.030;2023-12-07T04:17:38;1.40;99.90
20398;DHT22;10358;49.590;11.030;2023-12-07T04:20:04;1.40;99.90
20398;DHT22;10358;49.590;11.030;2023-12-07T04:22:31;1.40;99.90
20398;DHT22;10358;49.590;11.030;2023-12-07T04:24:56;1.30;99.90
20398;DHT22;10358;49.590;11.030;2023-12-07T04:27:22;1.30;99.90
20398;DHT22;10358;49.590;11.030;2023-12-07T04:29:47;1.30;99.90
20398;DHT22;10358;49.590;11.030;2023-12-07T04:32:13;1.20;99.90
20398;DHT22;10358;49.590;11.030;2023-12-07T04:34:38;1.10;99.90
20398;DHT22;10358;49.590;11.030;2023-12-07T04:37:04;1.10;99.90
20398;DHT22;10358;49.590;11.030;2023-12-07T04:39:30;1.10;99.90
20398;DHT22;10358;49.590;11.030;2023-12-07T04:41:55;1.10;99.90
20398;DHT22;10358;49.590;11.030;2023-12-07T04:44:21;1.00;99.90
20398;DHT22;10358;49.590;11.030;2023-12-07T04:46:46;1.00;99.90
20398;DHT22;10358;49.590;11.030;2023-12-07T04:49:12;1.00;99.90
20398;DHT22;10358;49.590;11.030;2023-12-07T04:51:37;0.90;99.90
20398;DHT22;10358;49.590;11.030;2023-12-07T04:54:03;0.80;99.90
20398;DHT22;10358;49.590;11.030;2023-12-07T04:56:28;0.80;99.90
20398;DHT22;10358;49.590;11.030;2023-12-07T04:58:54;0.80;99.90
20398;DHT22;10358;49.590;11.030;2023-12-07T05:01:19;0.70;99.90
20398;DHT22;10358;49.590;11.030;2023-12-07T05:03:45;0.70;99.90
20398;DHT22;10358;49.590;11.030;2023-12-07T05:06:11;0.60;99.90
20398;DHT22;10358;49.590;11.030;2023-12-07T05:08:38;0.60;99.90
20398;DHT22;10358;49.590;11.030;2023-12-07T05:11:05;0.50;99.90
20398;DHT22;10358;49.590;11.030;2023-12-07T05:13:32;0.50;99.90
20398;DHT22;10358;49.590;11.030;2023-12-07T05:15:59;0.40;99.90
20398;DHT22;10358;49.590;11.030;2023-12-07T05:18:25;0.20;99.90
20398;DHT22;10358;49.590;11.030;2023-12-07T05:20:50;0.20;99.90
20398;DHT22;10358;49.590;11.030;2023-12-07T05:23:16;0.10;99.90
20398;DHT22;10358;49.590;11.030;2023-12-07T05:25:43;0.10;99.90
20398;DHT22;10358;49.590;11.030;2023-12-07T05:28:08;0.10;99.90
20398;DHT22;10358;49.590;11.030;2023-12-07T05:30:35;0.00;99.90
20398;DHT22;10358;49.590;11.030;2023-12-07T05:33:02;0.00;99.90
20398;DHT22;10358;49.590;11.030;2023-12-07T05:35:27;0.00;99.90
20398;DHT22;10358;49.590;11.030;2023-12-07T05:37:53;0.00;99.90
20398;DHT22;10358;49.590;11.030;2023-12-07T05:40:19;-0.10;99.90
20398;DHT22;10358;49.590;11.030;2023-12-07T05:42:48;-0.20;99.90
20398;DHT22;10358;49.590;11.030;2023-12-07T05:45:14;-0.20;99.90
20398;DHT22;10358;49.590;11.030;2023-12-07T05:47:40;-0.20;99.90
20398;DHT22;10358;49.590;11.030;2023-12-07T05:50:06;-0.30;99.90
20398;DHT22;10358;49.590;11.030;2023-12-07T05:52:32;-0.30;99.90
20398;DHT22;10358;49.590;11.030;2023-12-07T05:54:57;-0.30;99.90
20398;DHT22;10358;49.590;11.030;2023-12-07T05:57:23;-0.30;99.90
20398;DHT22;10358;49.590;11.030;2023-12-07T05:59:48;-0.40;99.90
20398;DHT22;10358;49.590;11.030;2023-12-07T06:02:14;-0.40;99.90
20398;DHT22;10358;49.590;11.030;2023-12-07T06:04:40;-0.40;99.90
20398;DHT22;10358;49.590;11.030;2023-12-07T06:07:06;-0.40;99.90
20398;DHT22;10358;49.590;11.030;2023-12-07T06:09:31;-0.40;99.90
20398;DHT22;10358;49.590;11.030;2023-12-07T06:11:58;-0.50;99.90
20398;DHT22;10358;49.590;11.030;2023-12-07T06:14:23;-0.40;99.90
20398;DHT22;10358;49.590;11.030;2023-12-07T06:16:49;-0.40;99.90
20398;DHT22;10358;49.590;11.030;2023-12-07T06:19:14;-0.40;99.90
20398;DHT22;10358;49.590;11.030;2023-12-07T06:21:40;-0.40;99.90
20398;DHT22;10358;49.590;11.030;2023-12-07T06:24:06;-0.30;99.90
20398;DHT22;10358;49.590;11.030;2023-12-07T06:26:32;-0.30;99.90
20398;DHT22;10358;49.590;11.030;2023-12-07T06:28:58;-0.20;99.90
20398;DHT22;10358;49.590;11.030;2023-12-07T06:31:24;-0.20;99.90
20398;DHT22;10358;49.590;11.030;2023-12-07T06:33:49;-0.10;99.90
20398;DHT22;10358;49.590;11.030;2023-12-07T06:36:23;0.00;99.90
20398;DHT22;10358;49.590;11.030;2023-12-07T06:38:49;0.10;99.90
20398;DHT22;10358;49.590;11.030;2023-12-07T06:41:15;0.20;99.90
20398;DHT22;10358;49.590;11.030;2023-12-07T06:43:44;0.20;99.90
20398;DHT22;10358;49.590;11.030;2023-12-07T06:46:12;0.20;99.90
20398;DHT22;10358;49.590;11.030;2023-12-07T06:48:38;0.20;99.90
20398;DHT22;10358;49.590;11.030;2023-12-07T06:51:04;0.10;99.90
20398;DHT22;10358;49.590;11.030;2023-12-07T06:53:29;0.10;99.90
20398;DHT22;10358;49.590;11.030;2023-12-07T06:55:57;0.10;99.90
20398;DHT22;10358;49.590;11.030;2023-12-07T06:58:22;0.10;99.90
20398;DHT22;10358;49.590;11.030;2023-12-07T07:00:48;0.10;99.90
20398;DHT22;10358;49.590;11.030;2023-12-07T07:03:14;0.10;99.90
20398;DHT22;10358;49.590;11.030;2023-12-07T07:05:40;0.10;99.90
20398;DHT22;10358;49.590;11.030;2023-12-07T07:08:05;0.10;99.90
20398;DHT22;10358;49.590;11.030;2023-12-07T07:10:33;0.10;99.90
20398;DHT22;10358;49.590;11.030;2023-12-07T07:13:02;0.10;99.90
20398;DHT22;10358;49.590;11.030;2023-12-07T07:15:33;0.10;99.90
20398;DHT22;10358;49.590;11.030;2023-12-07T07:17:58;0.10;99.90
20398;DHT22;10358;49.590;11.030;2023-12-07T07:20:25;0.10;99.90
20398;DHT22;10358;49.590;11.030;2023-12-07T07:22:51;0.10;99.90
20398;DHT22;10358;49.590;11.030;2023-12-07T07:25:16;0.10;99.90
20398;DHT22;10358;49.590;11.030;2023-12-07T07:27:45;0.10;99.90
20398;DHT22;10358;49.590;11.030;2023-12-07T07:30:11;0.20;99.90
20398;DHT22;10358;49.590;11.030;2023-12-07T07:32:37;0.20;99.90
20398;DHT22;10358;49.590;11.030;2023-12-07T07:35:02;0.40;99.90
20398;DHT22;10358;49.590;11.030;2023-12-07T07:37:28;0.30;99.90
20398;DHT22;10358;49.590;11.030;2023-12-07T07:39:54;0.40;99.90
20398;DHT22;10358;49.590;11.030;2023-12-07T07:42:19;0.50;99.90
20398;DHT22;10358;49.590;11.030;2023-12-07T07:44:45;0.60;99.90
20398;DHT22;10358;49.590;11.030;2023-12-07T07:47:10;0.70;99.90
20398;DHT22;10358;49.590;11.030;2023-12-07T07:49:36;0.70;99.90
20398;DHT22;10358;49.590;11.030;2023-12-07T07:52:02;0.70;99.90
20398;DHT22;10358;49.590;11.030;2023-12-07T07:54:30;0.70;99.90
20398;DHT22;10358;49.590;11.030;2023-12-07T07:56:56;0.80;99.90
20398;DHT22;10358;49.590;11.030;2023-12-07T07:59:21;0.80;99.90
20398;DHT22;10358;49.590;11.030;2023-12-07T08:01:47;0.80;99.90
20398;DHT22;10358;49.590;11.030;2023-12-07T08:04:13;0.80;99.90
20398;DHT22;10358;49.590;11.030;2023-12-07T08:06:38;0.90;99.90
20398;DHT22;10358;49.590;11.030;2023-12-07T08:09:04;0.90;99.90
20398;DHT22;10358;49.590;11.030;2023-12-07T08:11:29;1.00;99.90
20398;DHT22;10358;49.590;11.030;2023-12-07T08:13:55;1.00;99.90
20398;DHT22;10358;49.590;11.030;2023-12-07T08:16:22;1.10;99.90
20398;DHT22;10358;49.590;11.030;2023-12-07T08:18:47;1.20;99.90
20398;DHT22;10358;49.590;11.030;2023-12-07T08:21:23;1.20;99.90
20398;DHT22;10358;49.590;11.030;2023-12-07T08:23:49;1.20;99.90
20398;DHT22;10358;49.590;11.030;2023-12-07T08:26:16;1.20;99.90
20398;DHT22;10358;49.590;11.030;2023-12-07T08:28:42;1.30;99.90
20398;DHT22;10358;49.590;11.030;2023-12-07T08:31:08;1.40;99.90
20398;DHT22;10358;49.590;11.030;2023-12-07T08:33:33;1.40;99.90
20398;DHT22;10358;49.590;11.030;2023-12-07T08:36:00;1.40;99.90
20398;DHT22;10358;49.590;11.030;2023-12-07T08:38:25;1.50;99.90
20398;DHT22;10358;49.590;11.030;2023-12-07T08:40:52;1.50;99.90
20398;DHT22;10358;49.590;11.030;2023-12-07T08:43:21;1.60;99.90
20398;DHT22;10358;49.590;11.030;2023-12-07T08:45:50;1.60;99.90
20398;DHT22;10358;49.590;11.030;2023-12-07T08:48:17;1.60;99.90
20398;DHT22;10358;49.590;11.030;2023-12-07T08:50:43;1.70;99.90
20398;DHT22;10358;49.590;11.030;2023-12-07T08:53:08;1.70;99.90
20398;DHT22;10358;49.590;11.030;2023-12-07T08:55:34;1.60;99.90
20398;DHT22;10358;49.590;11.030;2023-12-07T08:58:00;1.60;99.90
20398;DHT22;10358;49.590;11.030;2023-12-07T09:00:26;1.60;99.90
20398;DHT22;10358;49.590;11.030;2023-12-07T09:02:52;1.60;99.90
20398;DHT22;10358;49.590;11.030;2023-12-07T09:05:18;1.60;99.90
20398;DHT22;10358;49.590;11.030;2023-12-07T09:07:44;1.60;99.90
20398;DHT22;10358;49.590;11.030;2023-12-07T09:10:10;1.60;99.90
20398;DHT22;10358;49.590;11.030;2023-12-07T09:12:36;1.60;99.90
20398;DHT22;10358;49.590;11.030;2023-12-07T09:15:02;1.70;99.90
20398;DHT22;10358;49.590;11.030;2023-12-07T09:17:28;1.70;99.90
20398;DHT22;10358;49.590;11.030;2023-12-07T09:19:54;1.80;99.90
20398;DHT22;10358;49.590;11.030;2023-12-07T09:22:19;1.90;99.90
20398;DHT22;10358;49.590;11.030;2023-12-07T09:24:45;1.90;99.90
20398;DHT22;10358;49.590;11.030;2023-12-07T09:27:14;2.00;99.90
20398;DHT22;10358;49.590;11.030;2023-12-07T09:29:39;2.10;99.90
20398;DHT22;10358;49.590;11.030;2023-12-07T09:32:07;2.20;99.90
20398;DHT22;10358;49.590;11.030;2023-12-07T09:34:32;2.30;99.90
20398;DHT22;10358;49.590;11.030;2023-12-07T09:37:10;2.30;99.90
20398;DHT22;10358;49.590;11.030;2023-12-07T09:39:36;2.50;99.90
20398;DHT22;10358;49.590;11.030;2023-12-07T09:42:02;2.60;99.90
20398;DHT22;10358;49.590;11.030;2023-12-07T09:44:28;2.70;99.90
20398;DHT22;10358;49.590;11.030;2023-12-07T09:46:54;2.80;99.90
20398;DHT22;10358;49.590;11.030;2023-12-07T09:49:23;2.90;99.90
20398;DHT22;10358;49.590;11.030;2023-12-07T09:51:49;3.00;99.90
20398;DHT22;10358;49.590;11.030;2023-12-07T09:54:16;3.20;99.90
20398;DHT22;10358;49.590;11.030;2023-12-07T09:56:43;3.30;99.90
20398;DHT22;10358;49.590;11.030;2023-12-07T09:59:09;3.30;99.90
20398;DHT22;10358;49.590;11.030;2023-12-07T10:01:34;3.40;99.90
20398;DHT22;10358;49.590;11.030;2023-12-07T10:06:43;3.40;99.90
20398;DHT22;10358;49.590;11.030;2023-12-07T10:09:09;3.50;99.90
20398;DHT22;10358;49.590;11.030;2023-12-07T10:11:36;3.60;99.90
20398;DHT22;10358;49.590;11.030;2023-12-07T10:14:02;3.60;99.90
20398;DHT22;10358;49.590;11.030;2023-12-07T10:16:27;3.70;99.90
20398;DHT22;10358;49.590;11.030;2023-12-07T10:18:53;3.90;99.90
20398;DHT22;10358;49.590;11.030;2023-12-07T10:21:32;4.00;99.90
20398;DHT22;10358;49.590;11.030;2023-12-07T10:23:57;4.10;99.90
20398;DHT22;10358;49.590;11.030;2023-12-07T10:26:23;4.10;99.90
20398;DHT22;10358;49.590;11.030;2023-12-07T10:28:50;4.20;99.90
20398;DHT22;10358;49.590;11.030;2023-12-07T10:31:18;4.20;99.90
20398;DHT22;10358;49.590;11.030;2023-12-07T10:33:48;4.20;99.90
20398;DHT22;10358;49.590;11.030;2023-12-07T10:36:13;4.20;99.90
20398;DHT22;10358;49.590;11.030;2023-12-07T10:38:41;4.20;99.90
20398;DHT22;10358;49.590;11.030;2023-12-07T10:41:12;4.20;99.90
20398;DHT22;10358;49.590;11.030;2023-12-07T10:43:43;4.20;99.90
20398;DHT22;10358;49.590;11.030;2023-12-07T10:46:13;4.20;99.90
20398;DHT22;10358;49.590;11.030;2023-12-07T10:48:40;4.20;99.90
20398;DHT22;10358;49.590;11.030;2023-12-07T10:51:10;4.20;99.90
20398;DHT22;10358;49.590;11.030;2023-12-07T10:53:45;4.30;99.90
20398;DHT22;10358;49.590;11.030;2023-12-07T10:56:25;4.30;99.90
20398;DHT22;10358;49.590;11.030;2023-12-07T10:58:54;4.30;99.90
20398;DHT22;10358;49.590;11.030;2023-12-07T11:01:21;4.40;99.90
20398;DHT22;10358;49.590;11.030;2023-12-07T11:03:50;4.30;99.90
20398;DHT22;10358;49.590;11.030;2023-12-07T11:06:17;4.30;99.90
20398;DHT22;10358;49.590;11.030;2023-12-07T11:08:46;4.30;99.90
20398;DHT22;10358;49.590;11.030;2023-12-07T11:14:04;4.30;99.90
20398;DHT22;10358;49.590;11.030;2023-12-07T11:16:40;4.40;99.90
20398;DHT22;10358;49.590;11.030;2023-12-07T11:22:04;4.50;99.90
20398;DHT22;10358;49.590;11.030;2023-12-07T11:24:29;4.60;99.90
20398;DHT22;10358;49.590;11.030;2023-12-07T11:26:56;4.60;99.90
20398;DHT22;10358;49.590;11.030;2023-12-07T11:29:25;4.60;99.90
20398;DHT22;10358;49.590;11.030;2023-12-07T11:31:52;4.60;99.90
20398;DHT22;10358;49.590;11.030;2023-12-07T11:34:38;4.70;99.90
20398;DHT22;10358;49.590;11.030;2023-12-07T11:37:04;4.80;99.90
20398;DHT22;10358;49.590;11.030;2023-12-07T11:39:39;4.80;99.90
20398;DHT22;10358;49.590;11.030;2023-12-07T11:42:15;4.80;99.90
20398;DHT22;10358;49.590;11.030;2023-12-07T11:44:42;4.80;99.90
20398;DHT22;10358;49.590;11.030;2023-12-07T11:47:09;4.80;99.90
20398;DHT22;10358;49.590;11.030;2023-12-07T11:49:35;4.90;99.90
20398;DHT22;10358;49.590;11.030;2023-12-07T11:52:01;4.90;99.90
20398;DHT22;10358;49.590;11.030;2023-12-07T11:54:37;4.90;99.90
20398;DHT22;10358;49.590;11.030;2023-12-07T11:57:03;4.90;99.90
20398;DHT22;10358;49.590;11.030;2023-12-07T11:59:29;4.90;99.90
20398;DHT22;10358;49.590;11.030;2023-12-07T12:01:54;5.00;99.90
20398;DHT22;10358;49.590;11.030;2023-12-07T12:04:21;5.00;99.90
20398;DHT22;10358;49.590;11.030;2023-12-07T12:06:47;5.10;99.90
20398;DHT22;10358;49.590;11.030;2023-12-07T12:09:13;5.10;99.90
20398;DHT22;10358;49.590;11.030;2023-12-07T12:11:49;5.20;99.90
20398;DHT22;10358;49.590;11.030;2023-12-07T12:14:18;5.20;99.90
20398;DHT22;10358;49.590;11.030;2023-12-07T12:16:48;5.20;99.90
20398;DHT22;10358;49.590;11.030;2023-12-07T12:19:15;5.20;99.90
20398;DHT22;10358;49.590;11.030;2023-12-07T12:21:41;5.20;99.90
20398;DHT22;10358;49.590;11.030;2023-12-07T12:24:09;5.10;99.90
20398;DHT22;10358;49.590;11.030;2023-12-07T12:26:36;5.10;99.90
20398;DHT22;10358;49.590;11.030;2023-12-07T12:29:05;5.10;99.90
20398;DHT22;10358;49.590;11.030;2023-12-07T12:31:32;5.20;99.90
20398;DHT22;10358;49.590;11.030;2023-12-07T12:34:00;5.20;99.90
20398;DHT22;10358;49.590;11.030;2023-12-07T12:36:26;5.10;99.90
20398;DHT22;10358;49.590;11.030;2023-12-07T12:38:53;5.10;99.90
20398;DHT22;10358;49.590;11.030;2023-12-07T12:41:20;5.00;99.90
20398;DHT22;10358;49.590;11.030;2023-12-07T12:43:46;4.90;99.90
20398;DHT22;10358;49.590;11.030;2023-12-07T12:46:13;4.90;99.90
20398;DHT22;10358;49.590;11.030;2023-12-07T12:49:01;4.80;99.90
20398;DHT22;10358;49.590;11.030;2023-12-07T12:51:30;4.80;99.90
20398;DHT22;10358;49.590;11.030;2023-12-07T12:54:00;4.70;99.90
20398;DHT22;10358;49.590;11.030;2023-12-07T12:56:27;4.70;99.90
20398;DHT22;10358;49.590;11.030;2023-12-07T12:58:54;4.60;99.90
20398;DHT22;10358;49.590;11.030;2023-12-07T13:01:22;4.60;99.90
20398;DHT22;10358;49.590;11.030;2023-12-07T13:03:47;4.60;99.90
20398;DHT22;10358;49.590;11.030;2023-12-07T13:06:14;4.60;99.90
20398;DHT22;10358;49.590;11.030;2023-12-07T13:08:41;4.60;99.90
20398;DHT22;10358;49.590;11.030;2023-12-07T13:11:06;4.60;99.90
20398;DHT22;10358;49.590;11.030;2023-12-07T13:13:32;4.60;99.90
20398;DHT22;10358;49.590;11.030;2023-12-07T13:15:57;4.60;99.90
20398;DHT22;10358;49.590;11.030;2023-12-07T13:18:23;4.60;99.90
20398;DHT22;10358;49.590;11.030;2023-12-07T13:20:48;4.50;99.90
20398;DHT22;10358;49.590;11.030;2023-12-07T13:23:14;4.50;99.90
20398;DHT22;10358;49.590;11.030;2023-12-07T13:25:40;4.50;99.90
20398;DHT22;10358;49.590;11.030;2023-12-07T13:28:06;4.60;99.90
20398;DHT22;10358;49.590;11.030;2023-12-07T13:30:34;4.70;99.90
20398;DHT22;10358;49.590;11.030;2023-12-07T13:33:04;4.70;99.90
20398;DHT22;10358;49.590;11.030;2023-12-07T13:39:20;5.00;99.90
20398;DHT22;10358;49.590;11.030;2023-12-07T13:42:38;5.10;99.90
20398;DHT22;10358;49.590;11.030;2023-12-07T13:45:01;5.20;99.90
20398;DHT22;10358;49.590;11.030;2023-12-07T13:47:51;5.30;99.90
20398;DHT22;10358;49.590;11.030;2023-12-07T13:50:17;5.30;99.90
20398;DHT22;10358;49.590;11.030;2023-12-07T13:52:43;5.40;99.90
20398;DHT22;10358;49.590;11.030;2023-12-07T13:55:08;5.50;99.90
20398;DHT22;10358;49.590;11.030;2023-12-07T13:57:37;5.50;99.90
20398;DHT22;10358;49.590;11.030;2023-12-07T14:00:03;5.60;99.90
20398;DHT22;10358;49.590;11.030;2023-12-07T14:02:29;5.60;99.90
20398;DHT22;10358;49.590;11.030;2023-12-07T14:04:55;5.70;99.90
20398;DHT22;10358;49.590;11.030;2023-12-07T14:07:21;5.80;99.90
20398;DHT22;10358;49.590;11.030;2023-12-07T14:09:51;5.80;99.90
20398;DHT22;10358;49.590;11.030;2023-12-07T14:12:17;5.80;99.90
20398;DHT22;10358;49.590;11.030;2023-12-07T14:14:45;5.70;99.90
20398;DHT22;10358;49.590;11.030;2023-12-07T14:17:12;5.70;99.90
20398;DHT22;10358;49.590;11.030;2023-12-07T14:19:38;5.50;99.90
20398;DHT22;10358;49.590;11.030;2023-12-07T14:22:04;5.30;99.90
20398;DHT22;10358;49.590;11.030;2023-12-07T14:24:30;5.10;99.90
20398;DHT22;10358;49.590;11.030;2023-12-07T14:26:56;4.90;99.90
20398;DHT22;10358;49.590;11.030;2023-12-07T14:29:23;4.70;99.90
20398;DHT22;10358;49.590;11.030;2023-12-07T14:31:50;4.50;99.90
20398;DHT22;10358;49.590;11.030;2023-12-07T14:34:17;4.40;99.90
20398;DHT22;10358;49.590;11.030;2023-12-07T14:36:43;4.30;99.90
20398;DHT22;10358;49.590;11.030;2023-12-07T14:39:13;4.10;99.90
20398;DHT22;10358;49.590;11.030;2023-12-07T14:41:46;4.00;99.90
20398;DHT22;10358;49.590;11.030;2023-12-07T14:44:15;3.90;99.90
20398;DHT22;10358;49.590;11.030;2023-12-07T14:46:47;3.70;99.90
20398;DHT22;10358;49.590;11.030;2023-12-07T14:49:15;3.60;99.90
20398;DHT22;10358;49.590;11.030;2023-12-07T14:51:42;3.40;99.90
20398;DHT22;10358;49.590;11.030;2023-12-07T14:54:08;3.30;99.90
20398;DHT22;10358;49.590;11.030;2023-12-07T14:56:39;3.20;99.90
20398;DHT22;10358;49.590;11.030;2023-12-07T14:59:06;3.10;99.90
20398;DHT22;10358;49.590;11.030;2023-12-07T15:01:32;3.00;99.90
20398;DHT22;10358;49.590;11.030;2023-12-07T15:03:58;2.80;99.90
20398;DHT22;10358;49.590;11.030;2023-12-07T15:06:25;2.70;99.90
20398;DHT22;10358;49.590;11.030;2023-12-07T15:08:50;2.60;99.90
20398;DHT22;10358;49.590;11.030;2023-12-07T15:11:16;2.40;99.90
20398;DHT22;10358;49.590;11.030;2023-12-07T15:13:42;2.30;99.90
20398;DHT22;10358;49.590;11.030;2023-12-07T15:16:08;2.10;99.90
20398;DHT22;10358;49.590;11.030;2023-12-07T15:18:33;2.00;99.90
20398;DHT22;10358;49.590;11.030;2023-12-07T15:21:03;1.90;99.90
20398;DHT22;10358;49.590;11.030;2023-12-07T15:23:29;1.80;99.90
20398;DHT22;10358;49.590;11.030;2023-12-07T15:25:55;1.80;99.90
20398;DHT22;10358;49.590;11.030;2023-12-07T15:28:21;1.60;99.90
20398;DHT22;10358;49.590;11.030;2023-12-07T15:30:47;1.60;99.90
20398;DHT22;10358;49.590;11.030;2023-12-07T15:33:13;1.50;99.90
20398;DHT22;10358;49.590;11.030;2023-12-07T15:35:42;1.40;99.90
20398;DHT22;10358;49.590;11.030;2023-12-07T15:38:07;1.40;99.90
20398;DHT22;10358;49.590;11.030;2023-12-07T15:40:36;1.30;99.90